createdAt,value
2018-06-30T00:00:44.172Z,53.10
2018-06-30T00:01:49.249Z,52.50
2018-06-30T00:02:54.249Z,52.50
2018-06-30T00:03:59.233Z,52.40
2018-06-30T00:05:04.242Z,52.50
2018-06-30T00:06:09.394Z,52.50
2018-06-30T00:07:14.182Z,52.40
2018-06-30T00:08:19.129Z,52.40
2018-06-30T00:09:23.956Z,52.40
2018-06-30T00:10:28.997Z,52.40
2018-06-30T00:11:34.739Z,52.40
2018-06-30T00:12:39.939Z,52.40
2018-06-30T00:13:45.226Z,52.50
2018-06-30T00:14:50.103Z,52.40
2018-06-30T00:15:55.185Z,52.50
2018-06-30T00:17:00.240Z,52.50
2018-06-30T00:18:05.250Z,52.50
2018-06-30T00:19:10.233Z,52.50
2018-06-30T00:20:15.300Z,52.50
2018-06-30T00:21:20.244Z,52.50
2018-06-30T00:22:25.263Z,52.50
2018-06-30T00:23:30.352Z,52.50
2018-06-30T00:24:35.400Z,52.50
2018-06-30T00:25:40.460Z,52.50
2018-06-30T00:26:45.647Z,52.50
2018-06-30T00:27:50.891Z,52.50
2018-06-30T00:28:56.094Z,52.50
2018-06-30T00:30:01.452Z,52.50
2018-06-30T00:31:06.786Z,52.50
2018-06-30T00:32:12.787Z,52.50
2018-06-30T00:33:18.073Z,52.50
2018-06-30T00:34:23.310Z,52.50
2018-06-30T00:35:28.368Z,52.50
2018-06-30T00:36:33.529Z,52.50
2018-06-30T00:37:38.746Z,52.50
2018-06-30T00:38:43.985Z,52.50
2018-06-30T00:39:49.070Z,52.50
2018-06-30T00:40:54.126Z,52.50
2018-06-30T00:41:59.208Z,52.50
2018-06-30T00:43:04.680Z,52.50
2018-06-30T00:44:09.929Z,52.50
2018-06-30T00:45:15.152Z,52.50
2018-06-30T00:46:20.381Z,52.50
2018-06-30T00:47:25.416Z,52.50
2018-06-30T00:48:31.044Z,52.50
2018-06-30T00:49:36.268Z,52.50
2018-06-30T00:50:41.495Z,52.50
2018-06-30T00:51:46.728Z,52.50
2018-06-30T00:52:51.990Z,52.50
2018-06-30T00:53:57.183Z,52.60
2018-06-30T00:55:02.248Z,52.60
2018-06-30T00:56:07.165Z,52.50
2018-06-30T00:57:12.279Z,52.50
2018-06-30T00:58:17.310Z,52.50
2018-06-30T00:59:22.394Z,52.60
2018-06-30T01:00:27.439Z,52.50
2018-06-30T01:01:32.591Z,52.60
2018-06-30T01:02:37.791Z,52.60
2018-06-30T01:03:43.483Z,52.60
2018-06-30T01:04:48.587Z,52.60
2018-06-30T01:05:53.801Z,52.60
2018-06-30T01:06:58.827Z,52.50
2018-06-30T01:08:04.090Z,52.50
2018-06-30T01:09:09.196Z,52.60
2018-06-30T01:10:14.300Z,52.50
2018-06-30T01:11:19.423Z,52.60
2018-06-30T01:12:24.399Z,52.50
2018-06-30T01:13:29.453Z,52.60
2018-06-30T01:14:34.418Z,52.50
2018-06-30T01:15:39.455Z,52.60
2018-06-30T01:16:44.515Z,52.60
2018-06-30T01:17:49.565Z,52.60
2018-06-30T01:18:54.481Z,52.60
2018-06-30T01:19:59.493Z,52.50
2018-06-30T01:21:04.338Z,52.60
2018-06-30T01:22:09.262Z,52.50
2018-06-30T01:23:14.258Z,52.60
2018-06-30T01:24:19.029Z,52.50
2018-06-30T01:25:23.985Z,52.60
2018-06-30T01:26:28.970Z,52.60
2018-06-30T01:27:33.741Z,52.60
2018-06-30T01:28:38.576Z,52.60
2018-06-30T01:31:00.050Z,52.60
2018-06-30T01:32:04.923Z,52.50
2018-06-30T01:33:09.795Z,52.60
2018-06-30T01:34:14.760Z,52.50
2018-06-30T01:35:19.575Z,52.50
2018-06-30T01:36:24.363Z,52.50
2018-06-30T01:37:29.322Z,52.60
2018-06-30T01:38:34.281Z,52.60
2018-06-30T01:39:39.148Z,52.50
2018-06-30T01:40:43.957Z,52.60
2018-06-30T01:41:48.840Z,52.60
2018-06-30T01:42:53.841Z,52.60
2018-06-30T01:43:58.771Z,52.60
2018-06-30T01:45:03.590Z,52.60
2018-06-30T01:46:08.398Z,52.60
2018-06-30T01:47:13.381Z,52.60
2018-06-30T01:48:18.196Z,52.50
2018-06-30T01:49:22.985Z,52.50
2018-06-30T01:50:27.735Z,53.20
2018-06-30T01:51:32.702Z,52.60
2018-06-30T01:52:37.510Z,52.60
2018-06-30T01:53:42.911Z,52.60
2018-06-30T01:54:47.667Z,52.60
2018-06-30T01:55:52.423Z,52.60
2018-06-30T01:56:57.964Z,52.70
2018-06-30T01:58:02.802Z,52.60
2018-06-30T01:59:07.611Z,52.50
2018-06-30T02:00:12.464Z,52.60
2018-06-30T02:01:17.215Z,52.50
2018-06-30T02:02:21.975Z,52.70
2018-06-30T02:03:26.769Z,52.60
2018-06-30T02:04:31.703Z,52.60
2018-06-30T02:05:36.493Z,52.60
2018-06-30T02:06:41.271Z,52.50
2018-06-30T02:07:46.222Z,52.60
2018-06-30T02:08:50.998Z,52.60
2018-06-30T02:09:55.713Z,52.50
2018-06-30T02:11:01.061Z,52.50
2018-06-30T02:12:05.817Z,52.60
2018-06-30T02:13:11.083Z,52.60
2018-06-30T02:14:16.054Z,52.70
2018-06-30T02:15:20.886Z,52.60
2018-06-30T02:16:25.712Z,52.60
2018-06-30T02:17:30.853Z,52.60
2018-06-30T02:18:35.679Z,52.60
2018-06-30T02:19:40.532Z,52.60
2018-06-30T02:20:45.331Z,52.70
2018-06-30T02:21:50.168Z,52.60
2018-06-30T02:22:55.128Z,52.60
2018-06-30T02:23:59.944Z,52.70
2018-06-30T02:25:04.850Z,52.60
2018-06-30T02:26:09.638Z,52.60
2018-06-30T02:27:14.314Z,52.60
2018-06-30T02:28:19.086Z,52.70
2018-06-30T02:29:23.913Z,52.70
2018-06-30T02:30:28.686Z,52.70
2018-06-30T02:31:33.476Z,52.60
2018-06-30T02:32:38.315Z,52.60
2018-06-30T02:33:43.058Z,52.60
2018-06-30T02:34:48.009Z,52.70
2018-06-30T02:35:52.787Z,52.60
2018-06-30T02:36:58.131Z,52.70
2018-06-30T02:38:03.163Z,52.70
2018-06-30T02:39:08.222Z,52.50
2018-06-30T02:40:13.071Z,52.60
2018-06-30T02:41:18.129Z,52.50
2018-06-30T02:42:23.166Z,52.60
2018-06-30T02:43:28.221Z,52.60
2018-06-30T02:44:33.239Z,52.60
2018-06-30T02:45:38.304Z,52.50
2018-06-30T02:46:43.120Z,52.70
2018-06-30T02:47:48.672Z,52.60
2018-06-30T02:48:53.482Z,52.50
2018-06-30T02:49:58.584Z,52.60
2018-06-30T02:51:03.687Z,52.60
2018-06-30T02:52:08.799Z,52.60
2018-06-30T02:53:13.629Z,52.60
2018-06-30T02:54:18.526Z,52.60
2018-06-30T02:55:23.542Z,52.60
2018-06-30T02:56:28.630Z,52.60
2018-06-30T02:57:33.526Z,52.60
2018-06-30T02:58:38.561Z,52.60
2018-06-30T02:59:43.605Z,52.50
2018-06-30T03:00:48.493Z,52.60
2018-06-30T03:01:53.359Z,52.60
2018-06-30T03:02:58.207Z,52.60
2018-06-30T03:04:03.376Z,52.60
2018-06-30T03:05:08.624Z,52.60
2018-06-30T03:06:13.722Z,52.60
2018-06-30T03:07:18.538Z,52.50
2018-06-30T03:08:23.630Z,52.60
2018-06-30T03:09:28.705Z,52.60
2018-06-30T03:10:33.735Z,52.60
2018-06-30T03:11:38.841Z,52.60
2018-06-30T03:12:43.768Z,52.50
2018-06-30T03:13:48.598Z,52.60
2018-06-30T03:14:56.403Z,52.70
2018-06-30T03:16:01.222Z,52.60
2018-06-30T03:17:06.343Z,52.50
2018-06-30T03:18:11.492Z,52.60
2018-06-30T03:19:16.458Z,52.50
2018-06-30T03:20:21.574Z,52.60
2018-06-30T03:21:26.670Z,52.50
2018-06-30T03:22:31.662Z,52.70
2018-06-30T03:23:36.962Z,52.60
2018-06-30T03:24:42.223Z,52.60
2018-06-30T03:25:46.927Z,52.60
2018-06-30T03:26:51.892Z,52.50
2018-06-30T03:27:56.922Z,52.60
2018-06-30T03:29:02.895Z,52.60
2018-06-30T03:30:11.548Z,52.60
2018-06-30T03:31:16.941Z,52.50
2018-06-30T03:32:21.783Z,52.50
2018-06-30T03:33:26.927Z,52.50
2018-06-30T03:34:31.847Z,52.60
2018-06-30T03:35:36.892Z,52.60
2018-06-30T03:36:42.736Z,52.60
2018-06-30T03:37:47.877Z,52.60
2018-06-30T03:38:52.873Z,52.60
2018-06-30T03:39:57.900Z,52.50
2018-06-30T03:41:02.640Z,52.60
2018-06-30T03:42:08.839Z,52.60
2018-06-30T03:43:13.937Z,52.50
2018-06-30T03:44:18.973Z,52.60
2018-06-30T03:45:23.780Z,52.60
2018-06-30T03:46:28.830Z,52.60
2018-06-30T03:47:33.610Z,52.60
2018-06-30T03:48:38.492Z,53.10
2018-06-30T03:49:43.630Z,52.60
2018-06-30T03:50:48.819Z,52.40
2018-06-30T03:51:54.006Z,52.40
2018-06-30T03:52:58.921Z,52.50
2018-06-30T03:54:04.085Z,52.50
2018-06-30T03:55:09.041Z,52.50
2018-06-30T03:56:14.170Z,52.50
2018-06-30T03:57:19.251Z,52.50
2018-06-30T03:58:24.233Z,52.70
2018-06-30T03:59:29.527Z,52.50
2018-06-30T04:00:34.836Z,52.50
2018-06-30T04:01:39.911Z,52.50
2018-06-30T04:02:45.151Z,52.50
2018-06-30T04:03:50.348Z,52.50
2018-06-30T04:04:55.353Z,52.50
2018-06-30T04:06:00.479Z,52.50
2018-06-30T04:07:05.629Z,52.40
2018-06-30T04:08:10.620Z,52.40
2018-06-30T04:09:15.676Z,52.40
2018-06-30T04:10:20.876Z,52.40
2018-06-30T04:11:26.034Z,52.40
2018-06-30T04:12:31.248Z,52.40
2018-06-30T04:13:36.509Z,52.40
2018-06-30T04:14:41.738Z,52.40
2018-06-30T04:15:46.731Z,52.40
2018-06-30T04:16:51.903Z,52.40
2018-06-30T04:17:57.508Z,52.40
2018-06-30T04:19:02.621Z,52.30
2018-06-30T04:20:07.538Z,52.30
2018-06-30T04:21:12.476Z,52.30
2018-06-30T04:22:17.638Z,52.30
2018-06-30T04:23:22.753Z,52.30
2018-06-30T04:24:27.945Z,52.30
2018-06-30T04:25:32.913Z,52.20
2018-06-30T04:26:38.253Z,52.20
2018-06-30T04:27:43.388Z,52.20
2018-06-30T04:28:48.342Z,52.20
2018-06-30T04:29:53.213Z,52.20
2018-06-30T04:30:58.145Z,52.20
2018-06-30T04:32:03.257Z,52.20
2018-06-30T04:33:08.123Z,52.20
2018-06-30T04:34:13.203Z,52.20
2018-06-30T04:35:18.277Z,52.20
2018-06-30T04:36:23.371Z,52.20
2018-06-30T04:37:28.336Z,52.20
2018-06-30T04:38:33.421Z,52.20
2018-06-30T04:39:38.535Z,52.20
2018-06-30T04:40:43.574Z,52.20
2018-06-30T04:41:48.663Z,52.10
2018-06-30T04:42:53.682Z,52.10
2018-06-30T04:43:58.763Z,52.10
2018-06-30T04:45:03.713Z,52.20
2018-06-30T04:46:08.741Z,52.10
2018-06-30T04:47:13.809Z,52.10
2018-06-30T04:48:18.678Z,52.10
2018-06-30T04:49:23.769Z,52.10
2018-06-30T04:50:28.718Z,52.10
2018-06-30T04:51:33.852Z,52.10
2018-06-30T04:52:38.739Z,52.10
2018-06-30T04:53:43.897Z,52.00
2018-06-30T04:54:48.774Z,52.00
2018-06-30T04:55:53.891Z,52.10
2018-06-30T04:56:58.782Z,52.10
2018-06-30T04:58:03.877Z,52.10
2018-06-30T04:59:09.145Z,52.00
2018-06-30T05:00:14.064Z,52.00
2018-06-30T05:01:19.379Z,52.00
2018-06-30T05:02:24.246Z,52.00
2018-06-30T05:03:29.323Z,52.00
2018-06-30T05:04:34.339Z,51.90
2018-06-30T05:05:39.268Z,52.00
2018-06-30T05:06:44.373Z,52.00
2018-06-30T05:07:49.257Z,52.00
2018-06-30T05:08:54.113Z,51.90
2018-06-30T05:09:58.984Z,51.90
2018-06-30T05:11:04.094Z,51.90
2018-06-30T05:12:08.898Z,51.90
2018-06-30T05:13:13.769Z,51.90
2018-06-30T05:14:18.617Z,51.90
2018-06-30T05:15:23.533Z,51.90
2018-06-30T05:16:28.624Z,51.90
2018-06-30T05:17:33.540Z,51.80
2018-06-30T05:18:38.362Z,51.90
2018-06-30T05:19:43.378Z,51.80
2018-06-30T05:20:48.341Z,51.90
2018-06-30T05:21:53.652Z,51.80
2018-06-30T05:22:58.524Z,51.90
2018-06-30T05:24:04.068Z,51.80
2018-06-30T05:25:09.104Z,51.80
2018-06-30T05:26:14.077Z,51.80
2018-06-30T05:27:18.917Z,51.80
2018-06-30T05:28:23.679Z,51.80
2018-06-30T05:29:28.494Z,51.80
2018-06-30T05:30:33.423Z,51.80
2018-06-30T05:31:38.356Z,51.80
2018-06-30T05:32:43.315Z,51.80
2018-06-30T05:33:48.067Z,51.80
2018-06-30T05:34:52.813Z,51.80
2018-06-30T05:35:57.539Z,51.80
2018-06-30T05:37:02.497Z,51.80
2018-06-30T05:38:07.258Z,51.70
2018-06-30T05:39:12.899Z,51.70
2018-06-30T05:40:17.761Z,51.70
2018-06-30T05:41:22.597Z,51.70
2018-06-30T05:42:27.460Z,51.70
2018-06-30T05:43:32.415Z,51.70
2018-06-30T05:44:37.283Z,51.70
2018-06-30T05:45:42.271Z,51.70
2018-06-30T05:46:47.082Z,51.60
2018-06-30T05:47:51.781Z,51.60
2018-06-30T05:48:56.608Z,51.60
2018-06-30T05:50:01.510Z,51.60
2018-06-30T05:51:07.168Z,51.60
2018-06-30T05:52:12.099Z,51.60
2018-06-30T05:53:17.032Z,51.60
2018-06-30T05:54:22.109Z,51.60
2018-06-30T05:55:27.020Z,51.50
2018-06-30T05:56:32.081Z,51.30
2018-06-30T05:57:36.996Z,50.70
2018-06-30T05:58:42.177Z,50.00
2018-06-30T05:59:47.147Z,49.60
2018-06-30T06:00:53.052Z,49.50
2018-06-30T06:01:58.296Z,49.30
2018-06-30T06:03:03.372Z,48.90
2018-06-30T06:04:08.559Z,48.40
2018-06-30T06:05:13.840Z,48.30
2018-06-30T06:06:19.054Z,48.40
2018-06-30T06:07:24.098Z,48.70
2018-06-30T06:08:29.302Z,48.70
2018-06-30T06:09:34.380Z,48.70
2018-06-30T06:10:39.344Z,48.70
2018-06-30T06:11:44.242Z,48.00
2018-06-30T06:12:49.462Z,47.80
2018-06-30T06:13:55.347Z,48.00
2018-06-30T06:15:00.601Z,48.10
2018-06-30T06:16:05.645Z,48.10
2018-06-30T06:17:11.817Z,48.80
2018-06-30T06:18:16.878Z,48.20
2018-06-30T06:19:22.008Z,48.10
2018-06-30T06:20:27.704Z,48.20
2018-06-30T06:21:32.830Z,48.10
2018-06-30T06:22:37.987Z,48.20
2018-06-30T06:23:42.965Z,48.10
2018-06-30T06:24:48.595Z,48.10
2018-06-30T06:25:53.564Z,48.10
2018-06-30T06:26:58.678Z,48.00
2018-06-30T06:28:03.756Z,48.00
2018-06-30T06:29:08.674Z,48.00
2018-06-30T06:30:13.597Z,47.90
2018-06-30T06:31:18.550Z,47.80
2018-06-30T06:32:23.461Z,47.70
2018-06-30T06:33:28.943Z,47.60
2018-06-30T06:34:34.078Z,47.50
2018-06-30T06:35:38.971Z,47.50
2018-06-30T06:36:44.158Z,47.50
2018-06-30T06:37:49.125Z,47.40
2018-06-30T06:38:54.224Z,47.30
2018-06-30T06:39:59.346Z,47.50
2018-06-30T06:41:04.214Z,47.50
2018-06-30T06:42:09.020Z,47.50
2018-06-30T06:43:13.983Z,47.40
2018-06-30T06:44:19.173Z,47.30
2018-06-30T06:45:24.222Z,47.40
2018-06-30T06:46:29.252Z,47.30
2018-06-30T06:47:34.264Z,47.10
2018-06-30T06:48:39.139Z,47.10
2018-06-30T06:49:44.007Z,47.20
2018-06-30T06:50:49.132Z,47.20
2018-06-30T06:51:54.229Z,47.20
2018-06-30T06:52:59.440Z,47.20
2018-06-30T06:54:04.977Z,47.10
2018-06-30T06:55:09.886Z,47.10
2018-06-30T06:56:14.927Z,47.10
2018-06-30T06:57:20.043Z,47.20
2018-06-30T06:58:25.034Z,47.20
2018-06-30T06:59:29.911Z,47.20
2018-06-30T07:00:34.936Z,47.20
2018-06-30T07:01:39.908Z,47.10
2018-06-30T07:02:44.838Z,47.10
2018-06-30T07:03:49.871Z,47.10
2018-06-30T07:04:54.939Z,47.20
2018-06-30T07:05:59.969Z,47.30
2018-06-30T07:07:05.124Z,47.20
2018-06-30T07:08:10.288Z,46.90
2018-06-30T07:09:15.269Z,47.10
2018-06-30T07:10:20.551Z,47.10
2018-06-30T07:11:25.494Z,46.90
2018-06-30T07:12:31.701Z,46.90
2018-06-30T07:13:37.931Z,47.00
2018-06-30T07:14:42.764Z,47.00
2018-06-30T07:15:47.958Z,47.00
2018-06-30T07:16:53.016Z,47.00
2018-06-30T07:17:58.034Z,46.80
2018-06-30T07:19:03.262Z,46.80
2018-06-30T07:20:08.270Z,46.70
2018-06-30T07:21:13.896Z,46.70
2018-06-30T07:22:19.505Z,46.60
2018-06-30T07:23:24.731Z,46.70
2018-06-30T07:24:29.838Z,46.60
2018-06-30T07:25:34.789Z,46.60
2018-06-30T07:26:39.878Z,46.70
2018-06-30T07:27:44.931Z,46.60
2018-06-30T07:28:50.125Z,46.50
2018-06-30T07:29:55.303Z,46.50
2018-06-30T07:31:00.553Z,46.40
2018-06-30T07:32:05.722Z,46.60
2018-06-30T07:33:11.003Z,46.50
2018-06-30T07:34:15.945Z,45.60
2018-06-30T07:35:21.209Z,45.50
2018-06-30T07:36:27.188Z,46.10
2018-06-30T07:37:32.331Z,45.80
2018-06-30T07:38:37.522Z,46.00
2018-06-30T07:39:42.649Z,46.00
2018-06-30T07:40:48.780Z,46.10
2018-06-30T07:41:53.909Z,46.00
2018-06-30T07:42:58.918Z,46.50
2018-06-30T07:44:04.081Z,45.80
2018-06-30T07:45:08.944Z,45.80
2018-06-30T07:46:13.859Z,44.80
2018-06-30T07:47:18.955Z,45.10
2018-06-30T07:48:23.911Z,45.40
2018-06-30T07:49:28.947Z,45.50
2018-06-30T07:50:33.906Z,45.50
2018-06-30T07:51:38.755Z,45.60
2018-06-30T07:52:43.633Z,45.50
2018-06-30T07:53:48.654Z,45.40
2018-06-30T07:54:53.463Z,45.40
2018-06-30T07:55:58.343Z,45.50
2018-06-30T07:57:03.250Z,45.50
2018-06-30T07:58:08.299Z,45.20
2018-06-30T07:59:13.367Z,45.10
2018-06-30T08:00:18.405Z,45.00
2018-06-30T08:01:23.425Z,44.80
2018-06-30T08:02:28.460Z,45.00
2018-06-30T08:03:34.097Z,45.30
2018-06-30T08:04:39.011Z,44.90
2018-06-30T08:05:43.795Z,45.30
2018-06-30T08:06:48.598Z,45.30
2018-06-30T08:07:53.640Z,45.50
2018-06-30T08:08:58.698Z,45.20
2018-06-30T08:10:03.771Z,45.30
2018-06-30T08:11:08.714Z,45.20
2018-06-30T08:12:13.743Z,45.00
2018-06-30T08:13:18.667Z,45.10
2018-06-30T08:14:23.536Z,44.50
2018-06-30T08:15:28.577Z,44.50
2018-06-30T08:16:33.443Z,44.80
2018-06-30T08:17:38.331Z,45.00
2018-06-30T08:18:43.340Z,45.00
2018-06-30T08:19:48.546Z,45.00
2018-06-30T08:20:53.528Z,44.70
2018-06-30T08:21:58.354Z,44.70
2018-06-30T08:23:03.385Z,44.90
2018-06-30T08:24:08.301Z,44.70
2018-06-30T08:25:13.323Z,44.40
2018-06-30T08:26:18.432Z,44.70
2018-06-30T08:27:23.416Z,44.60
2018-06-30T08:28:29.012Z,44.20
2018-06-30T08:29:33.947Z,44.30
2018-06-30T08:30:38.940Z,44.50
2018-06-30T08:31:43.836Z,44.50
2018-06-30T08:32:48.923Z,44.00
2018-06-30T08:33:53.762Z,44.10
2018-06-30T08:34:58.686Z,44.10
2018-06-30T08:36:03.561Z,43.60
2018-06-30T08:37:08.770Z,43.50
2018-06-30T08:38:13.655Z,43.40
2018-06-30T08:39:18.721Z,43.90
2018-06-30T08:40:23.550Z,44.00
2018-06-30T08:41:28.471Z,43.60
2018-06-30T08:42:33.366Z,43.40
2018-06-30T08:43:38.265Z,43.60
2018-06-30T08:44:43.254Z,44.00
2018-06-30T08:45:48.131Z,44.00
2018-06-30T08:46:53.038Z,44.10
2018-06-30T08:47:58.167Z,44.40
2018-06-30T08:49:03.242Z,44.20
2018-06-30T08:50:08.153Z,44.20
2018-06-30T08:51:13.193Z,44.20
2018-06-30T08:52:17.979Z,44.20
2018-06-30T08:53:22.894Z,44.00
2018-06-30T08:54:28.280Z,44.30
2018-06-30T08:55:34.384Z,43.40
2018-06-30T08:56:39.534Z,41.80
2018-06-30T08:57:44.577Z,41.90
2018-06-30T08:58:49.798Z,42.70
2018-06-30T08:59:55.138Z,43.40
2018-06-30T09:01:00.114Z,43.10
2018-06-30T09:02:05.029Z,42.70
2018-06-30T09:03:10.036Z,42.70
2018-06-30T09:04:15.075Z,42.90
2018-06-30T09:05:19.996Z,43.10
2018-06-30T09:06:25.964Z,43.40
2018-06-30T09:07:31.003Z,43.20
2018-06-30T09:08:35.900Z,43.50
2018-06-30T09:09:40.976Z,43.90
2018-06-30T09:10:46.407Z,44.00
2018-06-30T09:11:52.566Z,44.10
2018-06-30T09:12:57.576Z,42.80
2018-06-30T09:14:02.657Z,43.20
2018-06-30T09:15:07.846Z,43.50
2018-06-30T09:16:12.966Z,43.70
2018-06-30T09:17:17.895Z,43.90
2018-06-30T09:18:22.920Z,43.40
2018-06-30T09:19:27.864Z,43.70
2018-06-30T09:20:33.110Z,43.80
2018-06-30T09:21:38.716Z,43.10
2018-06-30T09:22:43.575Z,42.00
2018-06-30T09:23:48.655Z,40.60
2018-06-30T09:24:53.659Z,39.50
2018-06-30T09:25:58.750Z,38.80
2018-06-30T09:27:03.727Z,38.90
2018-06-30T09:28:08.777Z,38.90
2018-06-30T09:29:13.577Z,38.90
2018-06-30T09:30:18.426Z,38.40
2018-06-30T09:31:23.231Z,38.90
2018-06-30T09:32:28.097Z,39.10
2018-06-30T09:33:32.884Z,39.40
2018-06-30T09:34:38.712Z,39.60
2018-06-30T09:35:43.533Z,39.90
2018-06-30T09:36:48.532Z,40.10
2018-06-30T09:37:53.587Z,40.40
2018-06-30T09:38:58.388Z,40.40
2018-06-30T09:40:03.199Z,40.00
2018-06-30T09:41:08.043Z,40.10
2018-06-30T09:42:13.046Z,40.60
2018-06-30T09:43:18.219Z,40.90
2018-06-30T09:44:23.279Z,41.20
2018-06-30T09:45:28.316Z,41.40
2018-06-30T09:46:33.380Z,41.60
2018-06-30T09:47:38.386Z,41.80
2018-06-30T09:48:43.504Z,42.00
2018-06-30T09:49:49.071Z,41.80
2018-06-30T09:50:54.238Z,41.20
2018-06-30T09:51:59.194Z,40.70
2018-06-30T09:53:04.172Z,41.70
2018-06-30T09:54:09.094Z,41.60
2018-06-30T09:55:13.969Z,41.80
2018-06-30T09:56:19.013Z,42.00
2018-06-30T09:57:23.813Z,42.20
2018-06-30T09:58:28.730Z,42.30
2018-06-30T09:59:33.719Z,42.30
2018-06-30T10:00:38.861Z,42.20
2018-06-30T10:01:43.638Z,42.30
2018-06-30T10:02:48.506Z,42.80
2018-06-30T10:03:53.585Z,43.20
2018-06-30T10:04:58.618Z,43.40
2018-06-30T10:06:03.539Z,43.50
2018-06-30T10:07:08.728Z,43.00
2018-06-30T10:08:13.693Z,42.90
2018-06-30T10:09:18.777Z,43.10
2018-06-30T10:10:23.733Z,42.70
2018-06-30T10:11:28.793Z,43.10
2018-06-30T10:12:33.903Z,43.50
2018-06-30T10:13:38.787Z,43.50
2018-06-30T10:14:43.609Z,43.50
2018-06-30T10:15:48.629Z,43.70
2018-06-30T10:16:53.481Z,43.70
2018-06-30T10:17:58.310Z,43.80
2018-06-30T10:19:03.343Z,43.50
2018-06-30T10:20:08.271Z,43.10
2018-06-30T10:21:13.332Z,42.70
2018-06-30T10:22:18.380Z,42.80
2018-06-30T10:23:23.214Z,42.90
2018-06-30T10:24:28.006Z,42.80
2018-06-30T10:25:33.047Z,42.60
2018-06-30T10:26:38.288Z,42.80
2018-06-30T10:27:43.230Z,43.10
2018-06-30T10:28:48.397Z,43.50
2018-06-30T10:29:53.240Z,43.80
2018-06-30T10:30:58.696Z,43.90
2018-06-30T10:32:03.753Z,44.00
2018-06-30T10:33:09.164Z,44.10
2018-06-30T10:34:14.143Z,44.20
2018-06-30T10:35:19.094Z,44.20
2018-06-30T10:36:24.217Z,44.30
2018-06-30T10:37:29.152Z,44.20
2018-06-30T10:38:33.991Z,44.30
2018-06-30T10:39:38.991Z,44.30
2018-06-30T10:40:44.030Z,44.30
2018-06-30T10:41:48.864Z,44.30
2018-06-30T10:42:53.880Z,44.30
2018-06-30T10:43:58.870Z,44.10
2018-06-30T10:45:03.886Z,44.10
2018-06-30T10:46:08.885Z,44.20
2018-06-30T10:47:13.916Z,44.40
2018-06-30T10:48:19.064Z,44.40
2018-06-30T10:49:24.128Z,44.30
2018-06-30T10:50:29.168Z,44.40
2018-06-30T10:51:34.018Z,44.40
2018-06-30T10:52:39.154Z,44.40
2018-06-30T10:53:44.136Z,44.40
2018-06-30T10:54:49.446Z,44.40
2018-06-30T10:55:54.454Z,44.40
2018-06-30T10:56:59.446Z,44.50
2018-06-30T10:58:04.288Z,44.40
2018-06-30T10:59:09.324Z,44.40
2018-06-30T11:00:14.255Z,44.50
2018-06-30T11:01:19.244Z,44.50
2018-06-30T11:02:24.180Z,44.50
2018-06-30T11:03:29.189Z,44.40
2018-06-30T11:04:34.143Z,44.20
2018-06-30T11:05:39.121Z,44.10
2018-06-30T11:06:44.221Z,44.30
2018-06-30T11:07:49.395Z,44.40
2018-06-30T11:08:54.310Z,44.40
2018-06-30T11:09:59.265Z,44.40
2018-06-30T11:11:04.387Z,44.50
2018-06-30T11:12:09.241Z,44.50
2018-06-30T11:13:14.410Z,44.50
2018-06-30T11:14:19.458Z,44.60
2018-06-30T11:15:24.363Z,44.60
2018-06-30T11:16:29.327Z,44.60
2018-06-30T11:17:34.293Z,44.60
2018-06-30T11:18:39.244Z,44.60
2018-06-30T11:19:44.244Z,44.60
2018-06-30T11:20:49.137Z,44.60
2018-06-30T11:21:53.994Z,44.60
2018-06-30T11:22:59.006Z,44.60
2018-06-30T11:24:03.995Z,44.60
2018-06-30T11:25:08.779Z,44.60
2018-06-30T11:26:13.604Z,44.70
2018-06-30T11:27:18.379Z,44.60
2018-06-30T11:28:23.199Z,44.60
2018-06-30T11:29:28.023Z,44.60
2018-06-30T11:30:32.803Z,44.60
2018-06-30T11:31:37.655Z,44.60
2018-06-30T11:32:42.415Z,44.60
2018-06-30T11:33:47.222Z,44.60
2018-06-30T11:34:52.232Z,44.60
2018-06-30T11:35:57.212Z,44.70
2018-06-30T11:37:02.048Z,44.60
2018-06-30T11:38:07.646Z,44.60
2018-06-30T11:39:12.625Z,44.60
2018-06-30T11:40:17.839Z,44.60
2018-06-30T11:41:22.719Z,44.60
2018-06-30T11:42:27.627Z,44.60
2018-06-30T11:43:32.666Z,44.70
2018-06-30T11:44:37.549Z,44.70
2018-06-30T11:45:42.607Z,44.60
2018-06-30T11:46:47.822Z,44.70
2018-06-30T11:47:52.963Z,44.70
2018-06-30T11:48:58.077Z,44.70
2018-06-30T11:50:02.922Z,44.60
2018-06-30T11:51:07.935Z,45.30
2018-06-30T11:52:12.877Z,44.60
2018-06-30T11:53:17.743Z,44.60
2018-06-30T11:54:22.672Z,44.60
2018-06-30T11:55:27.607Z,44.50
2018-06-30T11:56:32.871Z,44.70
2018-06-30T11:57:37.888Z,44.60
2018-06-30T11:58:44.347Z,44.70
2018-06-30T11:59:49.739Z,44.70
2018-06-30T12:00:54.718Z,44.70
2018-06-30T12:01:59.574Z,44.60
2018-06-30T12:03:04.559Z,44.50
2018-06-30T12:04:09.594Z,44.60
2018-06-30T12:05:14.710Z,44.60
2018-06-30T12:06:19.796Z,44.60
2018-06-30T12:07:24.707Z,44.50
2018-06-30T12:08:29.757Z,44.50
2018-06-30T12:09:34.529Z,44.50
2018-06-30T12:10:39.554Z,44.70
2018-06-30T12:11:44.767Z,44.50
2018-06-30T12:12:50.056Z,44.60
2018-06-30T12:13:55.000Z,44.60
2018-06-30T12:14:59.872Z,44.60
2018-06-30T12:16:04.881Z,44.60
2018-06-30T12:17:10.100Z,44.50
2018-06-30T12:18:15.087Z,44.70
2018-06-30T12:19:20.219Z,44.60
2018-06-30T12:20:25.070Z,44.60
2018-06-30T12:21:30.549Z,44.60
2018-06-30T12:22:35.447Z,44.60
2018-06-30T12:23:40.369Z,44.70
2018-06-30T12:24:45.491Z,44.60
2018-06-30T12:25:50.277Z,44.60
2018-06-30T12:26:55.301Z,44.60
2018-06-30T12:28:00.301Z,44.60
2018-06-30T12:29:05.642Z,44.60
2018-06-30T12:30:10.903Z,44.50
2018-06-30T12:31:15.784Z,44.50
2018-06-30T12:32:20.785Z,44.60
2018-06-30T12:33:25.615Z,44.60
2018-06-30T12:34:30.664Z,44.60
2018-06-30T12:35:35.629Z,44.60
2018-06-30T12:36:40.492Z,44.50
2018-06-30T12:37:45.488Z,44.70
2018-06-30T12:38:50.467Z,44.60
2018-06-30T12:39:55.297Z,44.60
2018-06-30T12:41:00.256Z,44.60
2018-06-30T12:42:05.033Z,44.60
2018-06-30T12:43:10.145Z,44.60
2018-06-30T12:44:15.168Z,44.60
2018-06-30T12:45:20.353Z,44.60
2018-06-30T12:46:25.331Z,44.50
2018-06-30T12:47:30.238Z,44.50
2018-06-30T12:48:35.057Z,44.50
2018-06-30T12:49:39.899Z,44.40
2018-06-30T12:50:44.742Z,44.10
2018-06-30T12:51:49.841Z,43.80
2018-06-30T12:52:54.815Z,43.80
2018-06-30T12:53:59.757Z,43.90
2018-06-30T12:55:04.753Z,43.80
2018-06-30T12:56:09.651Z,43.70
2018-06-30T12:57:14.701Z,43.40
2018-06-30T12:58:19.510Z,43.60
2018-06-30T12:59:24.378Z,43.90
2018-06-30T13:00:29.532Z,44.10
2018-06-30T13:01:34.343Z,44.20
2018-06-30T13:02:39.575Z,44.40
2018-06-30T13:03:44.918Z,44.40
2018-06-30T13:04:49.854Z,44.50
2018-06-30T13:05:54.983Z,44.50
2018-06-30T13:06:59.880Z,44.60
2018-06-30T13:08:04.956Z,44.50
2018-06-30T13:09:10.063Z,44.50
2018-06-30T13:10:15.193Z,44.50
2018-06-30T13:11:20.117Z,44.60
2018-06-30T13:12:25.220Z,44.60
2018-06-30T13:13:30.162Z,44.60
2018-06-30T13:14:35.037Z,44.60
2018-06-30T13:15:40.162Z,44.70
2018-06-30T13:16:45.098Z,44.60
2018-06-30T13:17:50.144Z,44.70
2018-06-30T13:18:55.267Z,44.60
2018-06-30T13:20:00.266Z,44.60
2018-06-30T13:21:05.230Z,44.60
2018-06-30T13:22:10.226Z,44.60
2018-06-30T13:23:15.196Z,44.70
2018-06-30T13:24:20.216Z,44.60
2018-06-30T13:25:25.284Z,44.80
2018-06-30T13:26:30.195Z,44.60
2018-06-30T13:27:35.010Z,44.60
2018-06-30T13:28:40.063Z,44.60
2018-06-30T13:29:45.037Z,44.60
2018-06-30T13:30:49.999Z,44.60
2018-06-30T13:31:55.199Z,44.60
2018-06-30T13:33:00.687Z,44.60
2018-06-30T13:34:05.525Z,44.60
2018-06-30T13:35:10.560Z,44.60
2018-06-30T13:36:15.508Z,44.60
2018-06-30T13:37:20.363Z,44.60
2018-06-30T13:38:25.344Z,44.60
2018-06-30T13:39:30.393Z,44.50
2018-06-30T13:40:35.251Z,44.50
2018-06-30T13:41:40.244Z,44.50
2018-06-30T13:42:45.103Z,44.50
2018-06-30T13:43:50.085Z,44.50
2018-06-30T13:44:54.918Z,44.50
2018-06-30T13:45:59.748Z,44.50
2018-06-30T13:47:04.707Z,44.50
2018-06-30T13:48:09.725Z,44.50
2018-06-30T13:49:14.499Z,44.50
2018-06-30T13:50:19.359Z,44.50
2018-06-30T13:51:24.306Z,44.50
2018-06-30T13:52:29.393Z,44.50
2018-06-30T13:53:34.351Z,44.50
2018-06-30T13:54:39.334Z,44.50
2018-06-30T13:55:44.288Z,44.50
2018-06-30T13:56:49.327Z,44.50
2018-06-30T13:57:54.421Z,44.40
2018-06-30T13:58:59.446Z,44.40